sensor_id;sensor_type;location;lat;lon;timestamp;temperature;humidity
14378;DHT22;7272;53.668;9.578;2022-11-27T00:00:52;8.10;99.90
14378;DHT22;7272;53.668;9.578;2022-11-27T00:03:55;8.10;99.90
14378;DHT22;7272;53.668;9.578;2022-11-27T00:06:58;8.00;99.90
14378;DHT22;7272;53.668;9.578;2022-11-27T00:10:00;8.00;99.90
14378;DHT22;7272;53.668;9.578;2022-11-27T00:13:02;7.90;99.90
14378;DHT22;7272;53.668;9.578;2022-11-27T00:16:05;7.90;99.90
14378;DHT22;7272;53.668;9.578;2022-11-27T00:19:08;7.90;99.90
14378;DHT22;7272;53.668;9.578;2022-11-27T00:22:11;7.90;99.90
14378;DHT22;7272;53.668;9.578;2022-11-27T00:25:13;7.90;99.90
14378;DHT22;7272;53.668;9.578;2022-11-27T00:28:15;7.90;99.90
14378;DHT22;7272;53.668;9.578;2022-11-27T00:31:19;7.90;99.90
14378;DHT22;7272;53.668;9.578;2022-11-27T00:34:21;7.80;99.90
14378;DHT22;7272;53.668;9.578;2022-11-27T00:37:24;7.80;99.90
14378;DHT22;7272;53.668;9.578;2022-11-27T00:40:26;7.70;99.90
14378;DHT22;7272;53.668;9.578;2022-11-27T00:43:28;7.70;99.90
14378;DHT22;7272;53.668;9.578;2022-11-27T00:46:31;7.70;99.90
14378;DHT22;7272;53.668;9.578;2022-11-27T00:49:33;7.60;99.90
14378;DHT22;7272;53.668;9.578;2022-11-27T00:52:37;7.60;99.90
14378;DHT22;7272;53.668;9.578;2022-11-27T00:55:40;7.60;99.90
14378;DHT22;7272;53.668;9.578;2022-11-27T00:58:42;7.50;99.90
14378;DHT22;7272;53.668;9.578;2022-11-27T01:01:45;7.50;99.90
14378;DHT22;7272;53.668;9.578;2022-11-27T01:04:48;7.50;99.90
14378;DHT22;7272;53.668;9.578;2022-11-27T01:07:51;7.40;99.90
14378;DHT22;7272;53.668;9.578;2022-11-27T01:10:56;7.40;99.90
14378;DHT22;7272;53.668;9.578;2022-11-27T01:13:59;7.30;99.90
14378;DHT22;7272;53.668;9.578;2022-11-27T01:17:02;7.30;99.90
14378;DHT22;7272;53.668;9.578;2022-11-27T01:20:05;7.20;99.90
14378;DHT22;7272;53.668;9.578;2022-11-27T01:23:09;7.10;99.90
14378;DHT22;7272;53.668;9.578;2022-11-27T01:26:11;7.00;99.90
14378;DHT22;7272;53.668;9.578;2022-11-27T01:29:13;6.90;99.90
14378;DHT22;7272;53.668;9.578;2022-11-27T01:32:15;6.80;99.90
14378;DHT22;7272;53.668;9.578;2022-11-27T01:35:17;6.70;99.90
14378;DHT22;7272;53.668;9.578;2022-11-27T01:38:20;6.70;99.90
14378;DHT22;7272;53.668;9.578;2022-11-27T01:41:24;6.60;99.90
14378;DHT22;7272;53.668;9.578;2022-11-27T01:44:57;6.50;99.90
14378;DHT22;7272;53.668;9.578;2022-11-27T01:48:00;6.50;99.90
14378;DHT22;7272;53.668;9.578;2022-11-27T01:51:04;6.40;99.90
14378;DHT22;7272;53.668;9.578;2022-11-27T01:54:08;6.30;99.90
14378;DHT22;7272;53.668;9.578;2022-11-27T01:57:14;6.30;99.90
14378;DHT22;7272;53.668;9.578;2022-11-27T02:00:17;6.30;99.90
14378;DHT22;7272;53.668;9.578;2022-11-27T02:03:19;6.30;99.90
14378;DHT22;7272;53.668;9.578;2022-11-27T02:06:22;6.20;99.90
14378;DHT22;7272;53.668;9.578;2022-11-27T02:09:26;6.20;99.90
14378;DHT22;7272;53.668;9.578;2022-11-27T02:12:33;6.10;99.90
14378;DHT22;7272;53.668;9.578;2022-11-27T02:15:42;6.20;99.90
14378;DHT22;7272;53.668;9.578;2022-11-27T02:18:50;6.10;99.90
14378;DHT22;7272;53.668;9.578;2022-11-27T02:21:56;6.10;99.90
14378;DHT22;7272;53.668;9.578;2022-11-27T02:25:06;6.00;99.90
14378;DHT22;7272;53.668;9.578;2022-11-27T02:28:22;6.00;99.90
14378;DHT22;7272;53.668;9.578;2022-11-27T02:31:33;6.00;99.90
14378;DHT22;7272;53.668;9.578;2022-11-27T02:34:42;6.00;99.90
14378;DHT22;7272;53.668;9.578;2022-11-27T02:37:48;5.90;99.90
14378;DHT22;7272;53.668;9.578;2022-11-27T02:40:54;6.00;99.90
14378;DHT22;7272;53.668;9.578;2022-11-27T02:43:58;6.00;99.90
14378;DHT22;7272;53.668;9.578;2022-11-27T02:47:04;6.00;99.90
14378;DHT22;7272;53.668;9.578;2022-11-27T02:50:09;6.00;99.90
14378;DHT22;7272;53.668;9.578;2022-11-27T02:53:16;6.10;99.90
14378;DHT22;7272;53.668;9.578;2022-11-27T02:56:21;6.10;99.90
14378;DHT22;7272;53.668;9.578;2022-11-27T02:59:25;6.10;99.90
14378;DHT22;7272;53.668;9.578;2022-11-27T03:02:33;6.20;99.90
14378;DHT22;7272;53.668;9.578;2022-11-27T03:05:39;6.10;99.90
14378;DHT22;7272;53.668;9.578;2022-11-27T03:08:48;6.20;99.90
14378;DHT22;7272;53.668;9.578;2022-11-27T03:11:51;6.20;99.90
14378;DHT22;7272;53.668;9.578;2022-11-27T03:14:53;6.20;99.90
14378;DHT22;7272;53.668;9.578;2022-11-27T03:17:59;6.20;99.90
14378;DHT22;7272;53.668;9.578;2022-11-27T03:21:08;6.20;99.90
14378;DHT22;7272;53.668;9.578;2022-11-27T03:24:12;6.20;99.90
14378;DHT22;7272;53.668;9.578;2022-11-27T03:27:17;6.20;99.90
14378;DHT22;7272;53.668;9.578;2022-11-27T03:30:20;6.20;99.90
14378;DHT22;7272;53.668;9.578;2022-11-27T03:33:23;6.20;99.90
14378;DHT22;7272;53.668;9.578;2022-11-27T03:36:25;6.20;99.90
14378;DHT22;7272;53.668;9.578;2022-11-27T03:39:28;6.20;99.90
14378;DHT22;7272;53.668;9.578;2022-11-27T03:42:35;6.20;99.90
14378;DHT22;7272;53.668;9.578;2022-11-27T03:45:45;6.20;99.90
14378;DHT22;7272;53.668;9.578;2022-11-27T03:48:58;6.30;99.90
14378;DHT22;7272;53.668;9.578;2022-11-27T03:52:08;6.20;99.90
14378;DHT22;7272;53.668;9.578;2022-11-27T03:55:19;6.20;99.90
14378;DHT22;7272;53.668;9.578;2022-11-27T03:58:28;6.20;99.90
14378;DHT22;7272;53.668;9.578;2022-11-27T04:01:33;6.20;99.90
14378;DHT22;7272;53.668;9.578;2022-11-27T04:04:37;6.20;99.90
14378;DHT22;7272;53.668;9.578;2022-11-27T04:07:39;6.20;99.90
14378;DHT22;7272;53.668;9.578;2022-11-27T04:10:41;6.20;99.90
14378;DHT22;7272;53.668;9.578;2022-11-27T04:13:44;6.20;99.90
14378;DHT22;7272;53.668;9.578;2022-11-27T04:16:45;6.20;99.90
14378;DHT22;7272;53.668;9.578;2022-11-27T04:19:49;6.20;99.90
14378;DHT22;7272;53.668;9.578;2022-11-27T04:22:51;6.20;99.90
14378;DHT22;7272;53.668;9.578;2022-11-27T04:25:53;6.20;99.90
14378;DHT22;7272;53.668;9.578;2022-11-27T04:28:56;6.20;99.90
14378;DHT22;7272;53.668;9.578;2022-11-27T04:31:57;6.20;99.90
14378;DHT22;7272;53.668;9.578;2022-11-27T04:35:01;6.10;99.90
14378;DHT22;7272;53.668;9.578;2022-11-27T04:38:03;6.10;99.90
14378;DHT22;7272;53.668;9.578;2022-11-27T04:41:04;6.10;99.90
14378;DHT22;7272;53.668;9.578;2022-11-27T04:44:06;6.10;99.90
14378;DHT22;7272;53.668;9.578;2022-11-27T04:47:08;6.10;99.90
14378;DHT22;7272;53.668;9.578;2022-11-27T04:50:12;6.10;99.90
14378;DHT22;7272;53.668;9.578;2022-11-27T04:53:14;6.10;99.90
14378;DHT22;7272;53.668;9.578;2022-11-27T04:56:15;6.00;99.90
14378;DHT22;7272;53.668;9.578;2022-11-27T04:59:18;6.00;99.90
14378;DHT22;7272;53.668;9.578;2022-11-27T05:02:20;6.00;99.90
14378;DHT22;7272;53.668;9.578;2022-11-27T05:05:23;6.00;99.90
14378;DHT22;7272;53.668;9.578;2022-11-27T05:08:25;5.90;99.90
14378;DHT22;7272;53.668;9.578;2022-11-27T05:11:28;5.90;99.90
14378;DHT22;7272;53.668;9.578;2022-11-27T05:14:30;5.90;99.90
14378;DHT22;7272;53.668;9.578;2022-11-27T05:17:32;5.80;99.90
14378;DHT22;7272;53.668;9.578;2022-11-27T05:20:35;5.80;99.90
14378;DHT22;7272;53.668;9.578;2022-11-27T05:23:37;5.70;99.90
14378;DHT22;7272;53.668;9.578;2022-11-27T05:26:40;5.70;99.90
14378;DHT22;7272;53.668;9.578;2022-11-27T05:29:42;5.70;99.90
14378;DHT22;7272;53.668;9.578;2022-11-27T05:32:44;5.70;99.90
14378;DHT22;7272;53.668;9.578;2022-11-27T05:35:47;5.60;99.90
14378;DHT22;7272;53.668;9.578;2022-11-27T05:38:49;5.50;99.90
14378;DHT22;7272;53.668;9.578;2022-11-27T05:41:51;5.50;99.90
14378;DHT22;7272;53.668;9.578;2022-11-27T05:44:53;5.50;99.90
14378;DHT22;7272;53.668;9.578;2022-11-27T05:47:55;5.40;99.90
14378;DHT22;7272;53.668;9.578;2022-11-27T05:50:58;5.40;99.90
14378;DHT22;7272;53.668;9.578;2022-11-27T05:54:00;5.40;99.90
14378;DHT22;7272;53.668;9.578;2022-11-27T05:57:02;5.40;99.90
14378;DHT22;7272;53.668;9.578;2022-11-27T06:00:05;5.40;99.90
14378;DHT22;7272;53.668;9.578;2022-11-27T06:03:08;5.40;99.90
14378;DHT22;7272;53.668;9.578;2022-11-27T06:06:13;5.40;99.90
14378;DHT22;7272;53.668;9.578;2022-11-27T06:09:15;5.40;99.90
14378;DHT22;7272;53.668;9.578;2022-11-27T06:12:17;5.30;99.90
14378;DHT22;7272;53.668;9.578;2022-11-27T06:15:19;5.30;99.90
14378;DHT22;7272;53.668;9.578;2022-11-27T06:18:20;5.30;99.90
14378;DHT22;7272;53.668;9.578;2022-11-27T06:21:24;5.20;99.90
14378;DHT22;7272;53.668;9.578;2022-11-27T06:24:26;5.20;99.90
14378;DHT22;7272;53.668;9.578;2022-11-27T06:27:31;5.20;99.90
14378;DHT22;7272;53.668;9.578;2022-11-27T06:30:33;5.20;99.90
14378;DHT22;7272;53.668;9.578;2022-11-27T06:33:35;5.20;99.90
14378;DHT22;7272;53.668;9.578;2022-11-27T06:36:39;5.20;99.90
14378;DHT22;7272;53.668;9.578;2022-11-27T06:39:41;5.10;99.90
14378;DHT22;7272;53.668;9.578;2022-11-27T06:42:43;5.10;99.90
14378;DHT22;7272;53.668;9.578;2022-11-27T06:45:53;5.10;99.90
14378;DHT22;7272;53.668;9.578;2022-11-27T06:48:57;5.00;99.90
14378;DHT22;7272;53.668;9.578;2022-11-27T06:52:00;5.00;99.90
14378;DHT22;7272;53.668;9.578;2022-11-27T06:55:02;5.00;99.90
14378;DHT22;7272;53.668;9.578;2022-11-27T06:58:04;5.00;99.90
14378;DHT22;7272;53.668;9.578;2022-11-27T07:01:09;5.00;99.90
14378;DHT22;7272;53.668;9.578;2022-11-27T07:04:13;5.00;99.90
14378;DHT22;7272;53.668;9.578;2022-11-27T07:07:16;5.00;99.90
14378;DHT22;7272;53.668;9.578;2022-11-27T07:10:18;5.00;99.90
14378;DHT22;7272;53.668;9.578;2022-11-27T07:13:20;4.90;99.90
14378;DHT22;7272;53.668;9.578;2022-11-27T07:16:23;4.90;99.90
14378;DHT22;7272;53.668;9.578;2022-11-27T07:19:25;4.90;99.90
14378;DHT22;7272;53.668;9.578;2022-11-27T07:22:31;4.90;99.90
14378;DHT22;7272;53.668;9.578;2022-11-27T07:25:32;4.90;99.90
14378;DHT22;7272;53.668;9.578;2022-11-27T07:28:35;4.90;99.90
14378;DHT22;7272;53.668;9.578;2022-11-27T07:31:37;5.00;99.90
14378;DHT22;7272;53.668;9.578;2022-11-27T07:34:38;5.00;99.90
14378;DHT22;7272;53.668;9.578;2022-11-27T07:37:42;5.10;99.90
14378;DHT22;7272;53.668;9.578;2022-11-27T07:40:44;5.10;99.90
14378;DHT22;7272;53.668;9.578;2022-11-27T07:43:46;5.10;99.90
14378;DHT22;7272;53.668;9.578;2022-11-27T07:46:47;5.10;99.90
14378;DHT22;7272;53.668;9.578;2022-11-27T07:49:49;5.10;99.90
14378;DHT22;7272;53.668;9.578;2022-11-27T07:52:53;5.20;99.90
14378;DHT22;7272;53.668;9.578;2022-11-27T07:55:58;5.20;99.90
14378;DHT22;7272;53.668;9.578;2022-11-27T07:59:00;5.20;99.90
14378;DHT22;7272;53.668;9.578;2022-11-27T08:02:02;5.30;99.90
14378;DHT22;7272;53.668;9.578;2022-11-27T08:05:04;5.30;99.90
14378;DHT22;7272;53.668;9.578;2022-11-27T08:08:08;5.30;99.90
14378;DHT22;7272;53.668;9.578;2022-11-27T08:11:21;5.30;99.90
14378;DHT22;7272;53.668;9.578;2022-11-27T08:14:23;5.30;99.90
14378;DHT22;7272;53.668;9.578;2022-11-27T08:17:25;5.40;99.90
14378;DHT22;7272;53.668;9.578;2022-11-27T08:20:27;5.40;99.90
14378;DHT22;7272;53.668;9.578;2022-11-27T08:23:30;5.50;99.90
14378;DHT22;7272;53.668;9.578;2022-11-27T08:26:32;5.60;99.90
14378;DHT22;7272;53.668;9.578;2022-11-27T08:29:35;5.60;99.90
14378;DHT22;7272;53.668;9.578;2022-11-27T08:32:37;5.60;99.90
14378;DHT22;7272;53.668;9.578;2022-11-27T08:35:39;5.70;99.90
14378;DHT22;7272;53.668;9.578;2022-11-27T08:38:42;5.60;99.90
14378;DHT22;7272;53.668;9.578;2022-11-27T08:41:44;5.60;99.90
14378;DHT22;7272;53.668;9.578;2022-11-27T08:44:46;5.70;99.90
14378;DHT22;7272;53.668;9.578;2022-11-27T08:47:48;5.70;99.90
14378;DHT22;7272;53.668;9.578;2022-11-27T08:50:51;5.70;99.90
14378;DHT22;7272;53.668;9.578;2022-11-27T08:53:54;5.70;99.90
14378;DHT22;7272;53.668;9.578;2022-11-27T08:56:56;5.80;99.90
14378;DHT22;7272;53.668;9.578;2022-11-27T08:59:58;5.80;99.90
14378;DHT22;7272;53.668;9.578;2022-11-27T09:03:00;5.80;99.90
14378;DHT22;7272;53.668;9.578;2022-11-27T09:06:05;5.80;99.90
14378;DHT22;7272;53.668;9.578;2022-11-27T09:09:09;5.80;99.90
14378;DHT22;7272;53.668;9.578;2022-11-27T09:12:11;5.80;99.90
14378;DHT22;7272;53.668;9.578;2022-11-27T09:15:16;5.70;99.90
14378;DHT22;7272;53.668;9.578;2022-11-27T09:18:18;5.70;99.90
14378;DHT22;7272;53.668;9.578;2022-11-27T09:21:22;5.70;99.90
14378;DHT22;7272;53.668;9.578;2022-11-27T09:24:29;5.70;99.90
14378;DHT22;7272;53.668;9.578;2022-11-27T09:27:31;5.90;99.90
14378;DHT22;7272;53.668;9.578;2022-11-27T09:30:33;6.00;99.90
14378;DHT22;7272;53.668;9.578;2022-11-27T09:33:36;6.20;99.90
14378;DHT22;7272;53.668;9.578;2022-11-27T09:36:38;6.30;99.90
14378;DHT22;7272;53.668;9.578;2022-11-27T09:39:41;6.50;99.90
14378;DHT22;7272;53.668;9.578;2022-11-27T09:42:49;6.60;99.90
14378;DHT22;7272;53.668;9.578;2022-11-27T09:45:58;6.60;99.90
14378;DHT22;7272;53.668;9.578;2022-11-27T09:49:06;6.60;99.90
14378;DHT22;7272;53.668;9.578;2022-11-27T09:52:14;6.50;99.90
14378;DHT22;7272;53.668;9.578;2022-11-27T09:55:23;6.50;99.90
14378;DHT22;7272;53.668;9.578;2022-11-27T09:58:35;6.50;99.90
14378;DHT22;7272;53.668;9.578;2022-11-27T10:01:38;6.60;99.90
14378;DHT22;7272;53.668;9.578;2022-11-27T10:04:40;6.60;99.90
14378;DHT22;7272;53.668;9.578;2022-11-27T10:11:13;6.70;99.90
14378;DHT22;7272;53.668;9.578;2022-11-27T10:14:37;6.70;99.90
14378;DHT22;7272;53.668;9.578;2022-11-27T10:17:45;6.70;99.90
14378;DHT22;7272;53.668;9.578;2022-11-27T10:20:54;6.80;99.90
14378;DHT22;7272;53.668;9.578;2022-11-27T10:24:04;6.90;99.90
14378;DHT22;7272;53.668;9.578;2022-11-27T10:27:19;7.00;99.90
14378;DHT22;7272;53.668;9.578;2022-11-27T10:30:21;7.10;99.90
14378;DHT22;7272;53.668;9.578;2022-11-27T10:33:27;7.10;99.90
14378;DHT22;7272;53.668;9.578;2022-11-27T10:36:35;7.20;99.90
14378;DHT22;7272;53.668;9.578;2022-11-27T10:39:40;7.20;99.90
14378;DHT22;7272;53.668;9.578;2022-11-27T10:42:49;7.30;99.90
14378;DHT22;7272;53.668;9.578;2022-11-27T10:45:53;7.40;99.90
14378;DHT22;7272;53.668;9.578;2022-11-27T10:48:56;7.40;99.90
14378;DHT22;7272;53.668;9.578;2022-11-27T10:51:58;7.40;99.90
14378;DHT22;7272;53.668;9.578;2022-11-27T10:55:02;7.50;99.90
14378;DHT22;7272;53.668;9.578;2022-11-27T10:58:12;7.40;99.90
14378;DHT22;7272;53.668;9.578;2022-11-27T11:01:17;7.40;99.90
14378;DHT22;7272;53.668;9.578;2022-11-27T11:04:24;7.50;99.90
14378;DHT22;7272;53.668;9.578;2022-11-27T11:07:28;7.50;99.90
14378;DHT22;7272;53.668;9.578;2022-11-27T11:10:33;7.60;99.90
14378;DHT22;7272;53.668;9.578;2022-11-27T11:13:44;7.60;99.90
14378;DHT22;7272;53.668;9.578;2022-11-27T11:16:46;7.70;99.90
14378;DHT22;7272;53.668;9.578;2022-11-27T11:19:48;7.70;99.90
14378;DHT22;7272;53.668;9.578;2022-11-27T11:22:50;7.70;99.90
14378;DHT22;7272;53.668;9.578;2022-11-27T11:25:55;7.80;99.90
14378;DHT22;7272;53.668;9.578;2022-11-27T11:29:00;7.80;99.90
14378;DHT22;7272;53.668;9.578;2022-11-27T11:32:07;7.80;99.90
14378;DHT22;7272;53.668;9.578;2022-11-27T11:35:24;7.80;99.90
14378;DHT22;7272;53.668;9.578;2022-11-27T11:38:29;7.90;99.90
14378;DHT22;7272;53.668;9.578;2022-11-27T11:41:36;7.80;99.90
14378;DHT22;7272;53.668;9.578;2022-11-27T11:44:39;7.90;99.90
14378;DHT22;7272;53.668;9.578;2022-11-27T11:47:44;7.90;99.90
14378;DHT22;7272;53.668;9.578;2022-11-27T11:50:50;7.90;99.90
14378;DHT22;7272;53.668;9.578;2022-11-27T11:53:59;7.90;99.90
14378;DHT22;7272;53.668;9.578;2022-11-27T11:57:13;7.90;99.90
14378;DHT22;7272;53.668;9.578;2022-11-27T12:00:21;8.00;99.90
14378;DHT22;7272;53.668;9.578;2022-11-27T12:03:34;8.00;99.90
14378;DHT22;7272;53.668;9.578;2022-11-27T12:06:47;8.00;99.90
14378;DHT22;7272;53.668;9.578;2022-11-27T12:09:59;8.00;99.90
14378;DHT22;7272;53.668;9.578;2022-11-27T12:13:24;8.10;99.90
14378;DHT22;7272;53.668;9.578;2022-11-27T12:16:35;8.10;99.90
14378;DHT22;7272;53.668;9.578;2022-11-27T12:20:13;8.10;99.90
14378;DHT22;7272;53.668;9.578;2022-11-27T12:27:05;8.10;99.90
14378;DHT22;7272;53.668;9.578;2022-11-27T12:30:14;8.00;99.90
14378;DHT22;7272;53.668;9.578;2022-11-27T12:33:29;8.10;99.90
14378;DHT22;7272;53.668;9.578;2022-11-27T12:36:54;8.10;99.90
14378;DHT22;7272;53.668;9.578;2022-11-27T12:40:09;8.10;99.90
14378;DHT22;7272;53.668;9.578;2022-11-27T12:43:22;8.00;99.90
14378;DHT22;7272;53.668;9.578;2022-11-27T12:46:29;8.00;99.90
14378;DHT22;7272;53.668;9.578;2022-11-27T12:49:40;8.00;99.90
14378;DHT22;7272;53.668;9.578;2022-11-27T12:52:46;8.00;99.90
14378;DHT22;7272;53.668;9.578;2022-11-27T12:55:59;8.00;99.90
14378;DHT22;7272;53.668;9.578;2022-11-27T12:59:10;8.10;99.90
14378;DHT22;7272;53.668;9.578;2022-11-27T13:02:24;8.10;99.90
14378;DHT22;7272;53.668;9.578;2022-11-27T13:05:32;8.00;99.90
14378;DHT22;7272;53.668;9.578;2022-11-27T13:08:44;8.10;99.90
14378;DHT22;7272;53.668;9.578;2022-11-27T13:11:48;8.10;99.90
14378;DHT22;7272;53.668;9.578;2022-11-27T13:14:55;8.10;99.90
14378;DHT22;7272;53.668;9.578;2022-11-27T13:18:03;8.00;99.90
14378;DHT22;7272;53.668;9.578;2022-11-27T13:21:13;8.00;99.90
14378;DHT22;7272;53.668;9.578;2022-11-27T13:24:15;8.00;99.90
14378;DHT22;7272;53.668;9.578;2022-11-27T13:27:20;8.00;99.90
14378;DHT22;7272;53.668;9.578;2022-11-27T13:30:26;8.00;99.90
14378;DHT22;7272;53.668;9.578;2022-11-27T13:33:35;8.00;99.90
14378;DHT22;7272;53.668;9.578;2022-11-27T13:36:41;8.00;99.90
14378;DHT22;7272;53.668;9.578;2022-11-27T13:39:44;8.00;99.90
14378;DHT22;7272;53.668;9.578;2022-11-27T13:42:49;8.00;99.90
14378;DHT22;7272;53.668;9.578;2022-11-27T13:46:01;8.00;99.90
14378;DHT22;7272;53.668;9.578;2022-11-27T13:49:04;8.00;99.90
14378;DHT22;7272;53.668;9.578;2022-11-27T13:52:09;7.90;99.90
14378;DHT22;7272;53.668;9.578;2022-11-27T13:55:23;7.90;99.90
14378;DHT22;7272;53.668;9.578;2022-11-27T13:58:31;7.90;99.90
14378;DHT22;7272;53.668;9.578;2022-11-27T14:01:34;7.90;99.90
14378;DHT22;7272;53.668;9.578;2022-11-27T14:04:47;7.90;99.90
14378;DHT22;7272;53.668;9.578;2022-11-27T14:07:58;7.90;99.90
14378;DHT22;7272;53.668;9.578;2022-11-27T14:11:03;8.00;99.90
14378;DHT22;7272;53.668;9.578;2022-11-27T14:14:17;8.00;99.90
14378;DHT22;7272;53.668;9.578;2022-11-27T14:17:24;7.90;99.90
14378;DHT22;7272;53.668;9.578;2022-11-27T14:20:30;7.90;99.90
14378;DHT22;7272;53.668;9.578;2022-11-27T14:23:46;7.90;99.90
14378;DHT22;7272;53.668;9.578;2022-11-27T14:26:49;7.90;99.90
14378;DHT22;7272;53.668;9.578;2022-11-27T14:29:51;7.90;99.90
14378;DHT22;7272;53.668;9.578;2022-11-27T14:32:53;7.90;99.90
14378;DHT22;7272;53.668;9.578;2022-11-27T14:35:57;7.90;99.90
14378;DHT22;7272;53.668;9.578;2022-11-27T14:39:01;7.90;99.90
14378;DHT22;7272;53.668;9.578;2022-11-27T14:42:05;7.90;99.90
14378;DHT22;7272;53.668;9.578;2022-11-27T14:45:12;7.90;99.90
14378;DHT22;7272;53.668;9.578;2022-11-27T14:48:19;7.90;99.90
14378;DHT22;7272;53.668;9.578;2022-11-27T14:51:24;7.80;99.90
14378;DHT22;7272;53.668;9.578;2022-11-27T14:54:30;7.80;99.90
14378;DHT22;7272;53.668;9.578;2022-11-27T14:57:34;7.80;99.90
14378;DHT22;7272;53.668;9.578;2022-11-27T15:00:37;7.80;99.90
14378;DHT22;7272;53.668;9.578;2022-11-27T15:03:39;7.80;99.90
14378;DHT22;7272;53.668;9.578;2022-11-27T15:06:44;7.80;99.90
14378;DHT22;7272;53.668;9.578;2022-11-27T15:09:50;7.80;99.90
14378;DHT22;7272;53.668;9.578;2022-11-27T15:12:54;7.80;99.90
14378;DHT22;7272;53.668;9.578;2022-11-27T15:16:00;7.80;99.90
14378;DHT22;7272;53.668;9.578;2022-11-27T15:19:04;7.80;99.90
14378;DHT22;7272;53.668;9.578;2022-11-27T15:22:15;7.70;99.90
14378;DHT22;7272;53.668;9.578;2022-11-27T15:25:33;7.70;99.90
14378;DHT22;7272;53.668;9.578;2022-11-27T15:28:38;7.70;99.90
14378;DHT22;7272;53.668;9.578;2022-11-27T15:31:49;7.70;99.90
14378;DHT22;7272;53.668;9.578;2022-11-27T15:34:53;7.70;99.90
14378;DHT22;7272;53.668;9.578;2022-11-27T15:37:56;7.70;99.90
14378;DHT22;7272;53.668;9.578;2022-11-27T15:41:15;7.60;99.90
14378;DHT22;7272;53.668;9.578;2022-11-27T15:44:21;7.60;99.90
14378;DHT22;7272;53.668;9.578;2022-11-27T15:47:27;7.60;99.90
14378;DHT22;7272;53.668;9.578;2022-11-27T15:50:30;7.60;99.90
14378;DHT22;7272;53.668;9.578;2022-11-27T15:53:32;7.50;99.90
14378;DHT22;7272;53.668;9.578;2022-11-27T15:56:36;7.50;99.90
14378;DHT22;7272;53.668;9.578;2022-11-27T15:59:38;7.50;99.90
14378;DHT22;7272;53.668;9.578;2022-11-27T16:02:40;7.50;99.90
14378;DHT22;7272;53.668;9.578;2022-11-27T16:05:42;7.50;99.90
14378;DHT22;7272;53.668;9.578;2022-11-27T16:08:45;7.50;99.90
14378;DHT22;7272;53.668;9.578;2022-11-27T16:11:48;7.40;99.90
14378;DHT22;7272;53.668;9.578;2022-11-27T16:14:50;7.40;99.90
14378;DHT22;7272;53.668;9.578;2022-11-27T16:17:52;7.40;99.90
14378;DHT22;7272;53.668;9.578;2022-11-27T16:20:55;7.40;99.90
14378;DHT22;7272;53.668;9.578;2022-11-27T16:23:57;7.40;99.90
14378;DHT22;7272;53.668;9.578;2022-11-27T16:27:01;7.40;99.90
14378;DHT22;7272;53.668;9.578;2022-11-27T16:30:05;7.40;99.90
14378;DHT22;7272;53.668;9.578;2022-11-27T16:33:07;7.50;99.90
14378;DHT22;7272;53.668;9.578;2022-11-27T16:36:11;7.50;99.90
14378;DHT22;7272;53.668;9.578;2022-11-27T16:39:15;7.50;99.90
14378;DHT22;7272;53.668;9.578;2022-11-27T16:42:19;7.50;99.90
14378;DHT22;7272;53.668;9.578;2022-11-27T16:45:21;7.50;99.90
14378;DHT22;7272;53.668;9.578;2022-11-27T16:48:24;7.50;99.90
14378;DHT22;7272;53.668;9.578;2022-11-27T16:51:27;7.50;99.90
14378;DHT22;7272;53.668;9.578;2022-11-27T16:54:32;7.50;99.90
14378;DHT22;7272;53.668;9.578;2022-11-27T16:57:36;7.50;99.90
14378;DHT22;7272;53.668;9.578;2022-11-27T17:00:39;7.50;99.90
14378;DHT22;7272;53.668;9.578;2022-11-27T17:03:47;7.50;99.90
14378;DHT22;7272;53.668;9.578;2022-11-27T17:06:50;7.40;99.90
14378;DHT22;7272;53.668;9.578;2022-11-27T17:09:52;7.40;99.90
14378;DHT22;7272;53.668;9.578;2022-11-27T17:12:55;7.40;99.90
14378;DHT22;7272;53.668;9.578;2022-11-27T17:15:59;7.40;99.90
14378;DHT22;7272;53.668;9.578;2022-11-27T17:19:01;7.50;99.90
14378;DHT22;7272;53.668;9.578;2022-11-27T17:22:05;7.50;99.90
14378;DHT22;7272;53.668;9.578;2022-11-27T17:25:09;7.50;99.90
14378;DHT22;7272;53.668;9.578;2022-11-27T17:28:13;7.50;99.90
14378;DHT22;7272;53.668;9.578;2022-11-27T17:31:16;7.50;99.90
14378;DHT22;7272;53.668;9.578;2022-11-27T17:34:19;7.50;99.90
14378;DHT22;7272;53.668;9.578;2022-11-27T17:37:22;7.50;99.90
14378;DHT22;7272;53.668;9.578;2022-11-27T17:40:24;7.50;99.90
14378;DHT22;7272;53.668;9.578;2022-11-27T17:43:27;7.50;99.90
14378;DHT22;7272;53.668;9.578;2022-11-27T17:46:31;7.50;99.90
14378;DHT22;7272;53.668;9.578;2022-11-27T17:49:34;7.50;99.90
14378;DHT22;7272;53.668;9.578;2022-11-27T17:52:36;7.50;99.90
14378;DHT22;7272;53.668;9.578;2022-11-27T17:55:38;7.50;99.90
14378;DHT22;7272;53.668;9.578;2022-11-27T17:58:42;7.50;99.90
14378;DHT22;7272;53.668;9.578;2022-11-27T18:01:44;7.50;99.90
14378;DHT22;7272;53.668;9.578;2022-11-27T18:04:48;7.50;99.90
14378;DHT22;7272;53.668;9.578;2022-11-27T18:07:50;7.50;99.90
14378;DHT22;7272;53.668;9.578;2022-11-27T18:10:53;7.60;99.90
14378;DHT22;7272;53.668;9.578;2022-11-27T18:13:56;7.60;99.90
14378;DHT22;7272;53.668;9.578;2022-11-27T18:16:59;7.60;99.90
14378;DHT22;7272;53.668;9.578;2022-11-27T18:20:05;7.60;99.90
14378;DHT22;7272;53.668;9.578;2022-11-27T18:23:08;7.60;99.90
14378;DHT22;7272;53.668;9.578;2022-11-27T18:26:13;7.60;99.90
14378;DHT22;7272;53.668;9.578;2022-11-27T18:29:17;7.60;99.90
14378;DHT22;7272;53.668;9.578;2022-11-27T18:32:19;7.60;99.90
14378;DHT22;7272;53.668;9.578;2022-11-27T18:35:22;7.60;99.90
14378;DHT22;7272;53.668;9.578;2022-11-27T18:38:24;7.60;99.90
14378;DHT22;7272;53.668;9.578;2022-11-27T18:41:28;7.70;99.90
14378;DHT22;7272;53.668;9.578;2022-11-27T18:44:34;7.70;99.90
14378;DHT22;7272;53.668;9.578;2022-11-27T18:47:36;7.70;99.90
14378;DHT22;7272;53.668;9.578;2022-11-27T18:50:38;7.70;99.90
14378;DHT22;7272;53.668;9.578;2022-11-27T18:53:41;7.70;99.90
14378;DHT22;7272;53.668;9.578;2022-11-27T18:56:43;7.70;99.90
14378;DHT22;7272;53.668;9.578;2022-11-27T18:59:46;7.70;99.90
14378;DHT22;7272;53.668;9.578;2022-11-27T19:02:49;7.60;99.90
14378;DHT22;7272;53.668;9.578;2022-11-27T19:05:51;7.60;99.90
14378;DHT22;7272;53.668;9.578;2022-11-27T19:08:53;7.60;99.90
14378;DHT22;7272;53.668;9.578;2022-11-27T19:11:55;7.60;99.90
14378;DHT22;7272;53.668;9.578;2022-11-27T19:14:58;7.50;99.90
14378;DHT22;7272;53.668;9.578;2022-11-27T19:18:01;7.50;99.90
14378;DHT22;7272;53.668;9.578;2022-11-27T19:21:07;7.40;99.90
14378;DHT22;7272;53.668;9.578;2022-11-27T19:24:09;7.40;99.90
14378;DHT22;7272;53.668;9.578;2022-11-27T19:27:11;7.40;99.90
14378;DHT22;7272;53.668;9.578;2022-11-27T19:30:15;7.40;99.90
14378;DHT22;7272;53.668;9.578;2022-11-27T19:33:17;7.40;99.90
14378;DHT22;7272;53.668;9.578;2022-11-27T19:36:19;7.40;99.90
14378;DHT22;7272;53.668;9.578;2022-11-27T19:39:21;7.40;99.90
14378;DHT22;7272;53.668;9.578;2022-11-27T19:42:24;7.40;99.90
14378;DHT22;7272;53.668;9.578;2022-11-27T19:45:28;7.40;99.90
14378;DHT22;7272;53.668;9.578;2022-11-27T19:48:30;7.40;99.90
14378;DHT22;7272;53.668;9.578;2022-11-27T19:51:34;7.40;99.90
14378;DHT22;7272;53.668;9.578;2022-11-27T19:54:36;7.40;99.90
14378;DHT22;7272;53.668;9.578;2022-11-27T19:57:38;7.40;99.90
14378;DHT22;7272;53.668;9.578;2022-11-27T20:00:41;7.40;99.90
14378;DHT22;7272;53.668;9.578;2022-11-27T20:03:44;7.30;99.90
14378;DHT22;7272;53.668;9.578;2022-11-27T20:06:49;7.30;99.90
14378;DHT22;7272;53.668;9.578;2022-11-27T20:09:52;7.30;99.90
14378;DHT22;7272;53.668;9.578;2022-11-27T20:12:58;7.30;99.90